createdAt,value
2023-02-11T00:00:16.741Z,88.19
2023-02-11T00:02:46.082Z,88.25
2023-02-11T00:05:13.921Z,88.24
2023-02-11T00:07:40.319Z,88.24
2023-02-11T00:10:10.049Z,88.45
2023-02-11T00:12:38.121Z,88.70
2023-02-11T00:15:06.308Z,88.38
2023-02-11T00:17:33.255Z,88.34
2023-02-11T00:19:59.796Z,88.68
2023-02-11T00:22:26.257Z,88.49
2023-02-11T00:24:53.606Z,88.52
2023-02-11T00:27:20.000Z,88.51
2023-02-11T00:29:46.447Z,88.72
2023-02-11T00:32:12.868Z,88.77
2023-02-11T00:34:39.327Z,88.54
2023-02-11T00:37:06.155Z,88.78
2023-02-11T00:39:32.692Z,89.09
2023-02-11T00:41:59.172Z,88.84
2023-02-11T00:44:25.605Z,89.01
2023-02-11T00:46:51.994Z,88.97
2023-02-11T00:49:18.412Z,88.72
2023-02-11T00:51:45.078Z,89.07
2023-02-11T00:54:11.695Z,89.10
2023-02-11T00:56:38.162Z,89.15
2023-02-11T00:59:04.575Z,89.23
2023-02-11T01:01:30.943Z,89.24
2023-02-11T01:03:57.365Z,89.25
2023-02-11T01:06:23.723Z,88.93
2023-02-11T01:08:50.139Z,89.38
2023-02-11T01:11:20.219Z,89.51
2023-02-11T01:13:47.799Z,89.32
2023-02-11T01:16:14.580Z,89.38
2023-02-11T01:18:42.658Z,89.38
2023-02-11T01:21:09.025Z,89.74
2023-02-11T01:23:35.556Z,89.90
2023-02-11T01:26:01.992Z,89.66
2023-02-11T01:28:30.176Z,89.61
2023-02-11T01:30:56.890Z,89.95
2023-02-11T01:33:24.592Z,90.24
2023-02-11T01:35:51.545Z,89.84
2023-02-11T01:38:23.921Z,89.99
2023-02-11T01:40:52.951Z,90.00
2023-02-11T01:43:20.838Z,90.58
2023-02-11T01:45:47.286Z,90.41
2023-02-11T01:48:25.165Z,90.33
2023-02-11T01:50:57.037Z,90.35
2023-02-11T01:53:42.731Z,90.53
2023-02-11T01:56:30.033Z,90.50
2023-02-11T01:59:05.911Z,90.64
2023-02-11T02:01:34.599Z,90.35
2023-02-11T02:04:03.202Z,90.43
2023-02-11T02:06:35.760Z,90.21
2023-02-11T02:09:09.369Z,90.57
2023-02-11T02:11:36.296Z,90.45
2023-02-11T02:14:03.224Z,90.64
2023-02-11T02:16:35.976Z,90.36
2023-02-11T02:19:38.845Z,90.45
2023-02-11T02:22:32.215Z,90.51
2023-02-11T02:25:10.501Z,90.80
2023-02-11T02:28:09.316Z,90.79
2023-02-11T02:31:06.714Z,90.79
2023-02-11T02:33:55.870Z,90.98
2023-02-11T02:36:43.810Z,91.25
2023-02-11T02:39:21.376Z,91.28
2023-02-11T02:41:50.386Z,91.39
2023-02-11T02:44:18.755Z,91.10
2023-02-11T02:46:45.425Z,90.95
2023-02-11T02:49:16.628Z,91.65
2023-02-11T02:52:07.767Z,91.11
2023-02-11T02:54:49.336Z,91.50
2023-02-11T02:57:33.369Z,91.37
2023-02-11T03:00:18.441Z,91.23
2023-02-11T03:02:57.869Z,91.52
2023-02-11T03:06:04.182Z,91.86
2023-02-11T03:08:49.482Z,91.75
2023-02-11T03:11:19.224Z,91.66
2023-02-11T03:13:47.387Z,92.17
2023-02-11T03:16:19.608Z,91.90
2023-02-11T03:18:52.578Z,92.10
2023-02-11T03:21:20.738Z,92.03
2023-02-11T03:23:50.009Z,91.99
2023-02-11T03:26:38.411Z,92.43
2023-02-11T03:29:14.219Z,92.49
2023-02-11T03:31:52.445Z,92.92
2023-02-11T03:34:46.443Z,92.66
2023-02-11T03:37:31.558Z,92.70
2023-02-11T03:40:03.701Z,92.93
2023-02-11T03:42:56.901Z,92.94
2023-02-11T03:45:25.753Z,93.25
2023-02-11T03:47:58.088Z,93.17
2023-02-11T03:50:26.782Z,93.21
2023-02-11T03:52:55.565Z,92.95
2023-02-11T03:55:25.877Z,93.08
2023-02-11T03:57:52.410Z,93.42
2023-02-11T04:00:19.220Z,93.69
2023-02-11T04:02:45.840Z,93.48
2023-02-11T04:05:15.500Z,93.68
2023-02-11T04:07:42.150Z,94.15
2023-02-11T04:10:08.992Z,93.75
2023-02-11T04:12:35.379Z,94.01
2023-02-11T04:15:01.738Z,94.39
2023-02-11T04:17:28.088Z,94.06
2023-02-11T04:19:54.520Z,94.57
2023-02-11T04:22:20.852Z,94.12
2023-02-11T04:24:47.237Z,94.24
2023-02-11T04:27:13.819Z,94.19
2023-02-11T04:29:40.302Z,94.25
2023-02-11T04:32:06.763Z,94.46
2023-02-11T04:34:33.401Z,94.31
2023-02-11T04:36:59.808Z,94.24
2023-02-11T04:39:26.224Z,94.30
2023-02-11T04:41:52.865Z,94.64
2023-02-11T04:44:19.254Z,94.35
2023-02-11T04:46:45.672Z,94.71
2023-02-11T04:49:16.854Z,94.68
2023-02-11T04:51:46.960Z,94.86
2023-02-11T04:54:14.645Z,94.70
2023-02-11T04:56:41.117Z,94.78
2023-02-11T04:59:07.795Z,94.71
2023-02-11T05:01:34.249Z,94.35
2023-02-11T05:04:00.683Z,94.71
2023-02-11T05:06:27.083Z,94.67
2023-02-11T05:08:53.509Z,94.32
2023-02-11T05:11:22.817Z,94.79
2023-02-11T05:13:49.297Z,94.42
2023-02-11T05:16:17.246Z,94.47
2023-02-11T05:18:44.911Z,94.45
2023-02-11T05:21:17.218Z,94.56
2023-02-11T05:23:45.302Z,94.13
2023-02-11T05:26:12.201Z,94.34
2023-02-11T05:28:39.361Z,94.47
2023-02-11T05:31:06.299Z,94.71
2023-02-11T05:33:33.012Z,94.32
2023-02-11T05:36:01.048Z,94.45
2023-02-11T05:38:27.651Z,94.72
2023-02-11T05:40:54.896Z,94.93
2023-02-11T05:43:21.538Z,94.96
2023-02-11T05:45:48.310Z,94.73
2023-02-11T05:48:14.997Z,94.95
2023-02-11T05:50:41.525Z,95.05
2023-02-11T05:53:07.974Z,94.72
2023-02-11T05:55:34.918Z,94.68
2023-02-11T05:58:01.637Z,94.71
2023-02-11T06:00:28.088Z,94.89
2023-02-11T06:02:54.609Z,94.60
2023-02-11T06:05:21.037Z,94.60
2023-02-11T06:07:47.545Z,94.91
2023-02-11T06:10:14.090Z,94.73
2023-02-11T06:12:40.470Z,94.85
2023-02-11T06:15:07.479Z,94.48
2023-02-11T06:17:34.005Z,94.64
2023-02-11T06:20:02.740Z,94.37
2023-02-11T06:22:29.379Z,94.44
2023-02-11T06:25:01.723Z,94.53
2023-02-11T06:27:28.795Z,94.24
2023-02-11T06:29:55.213Z,94.73
2023-02-11T06:32:42.591Z,94.32
2023-02-11T06:35:11.729Z,94.37
2023-02-11T06:37:38.707Z,94.49
2023-02-11T06:40:05.454Z,94.60
2023-02-11T06:42:31.993Z,94.36
2023-02-11T06:44:58.445Z,94.63
2023-02-11T06:47:24.818Z,94.75
2023-02-11T06:49:51.255Z,94.47
2023-02-11T06:52:17.670Z,94.49
2023-02-11T06:54:44.098Z,94.47
2023-02-11T06:57:10.464Z,94.67
2023-02-11T06:59:36.833Z,94.92
2023-02-11T07:02:03.246Z,94.82
2023-02-11T07:04:29.682Z,94.68
2023-02-11T07:06:56.074Z,94.58
2023-02-11T07:09:22.478Z,94.76
2023-02-11T07:11:48.866Z,94.87
2023-02-11T07:14:15.290Z,94.50
2023-02-11T07:16:41.694Z,94.66
2023-02-11T07:19:08.146Z,94.91
2023-02-11T07:21:34.774Z,94.96
2023-02-11T07:24:01.902Z,94.84
2023-02-11T07:26:29.171Z,95.04
2023-02-11T07:28:55.801Z,95.25
2023-02-11T07:31:25.378Z,95.28
2023-02-11T07:33:54.516Z,95.00
2023-02-11T07:36:21.980Z,95.21
2023-02-11T07:38:48.941Z,95.28
2023-02-11T07:41:18.922Z,95.44
2023-02-11T07:43:45.661Z,95.11
2023-02-11T07:46:16.834Z,95.17
2023-02-11T07:48:43.367Z,95.29
2023-02-11T07:51:11.181Z,95.13
2023-02-11T07:53:37.971Z,95.26
2023-02-11T07:56:05.746Z,94.98
2023-02-11T07:58:32.942Z,95.05
2023-02-11T08:01:04.789Z,95.25
2023-02-11T08:03:31.846Z,95.17
2023-02-11T08:05:58.607Z,95.13
2023-02-11T08:08:28.153Z,95.03
2023-02-11T08:10:54.600Z,94.70
2023-02-11T08:13:20.995Z,95.03
2023-02-11T08:15:47.457Z,94.76
2023-02-11T08:18:13.833Z,94.78
2023-02-11T08:20:40.653Z,94.92
2023-02-11T08:23:07.903Z,94.83
2023-02-11T08:25:34.379Z,94.70
2023-02-11T08:28:00.777Z,94.79
2023-02-11T08:30:27.686Z,94.46
2023-02-11T08:32:54.186Z,94.46
2023-02-11T08:35:20.534Z,94.54
2023-02-11T08:37:46.924Z,94.73
2023-02-11T08:40:13.424Z,94.55
2023-02-11T08:42:39.834Z,94.47
2023-02-11T08:45:06.844Z,94.47
2023-02-11T08:47:33.266Z,94.43
2023-02-11T08:49:59.705Z,94.38
2023-02-11T08:52:26.127Z,94.32
2023-02-11T08:54:52.561Z,94.27
2023-02-11T08:57:18.972Z,94.26
2023-02-11T08:59:45.320Z,93.88
2023-02-11T09:02:14.011Z,94.07
2023-02-11T09:04:40.911Z,94.04
2023-02-11T09:07:07.601Z,93.87
2023-02-11T09:09:34.067Z,93.69
2023-02-11T09:12:01.290Z,93.87
2023-02-11T09:14:28.252Z,93.66
2023-02-11T09:16:54.707Z,93.63
2023-02-11T09:19:21.296Z,93.45
2023-02-11T09:21:47.868Z,93.01
2023-02-11T09:24:14.818Z,93.05
2023-02-11T09:26:43.215Z,93.04
2023-02-11T09:29:09.616Z,92.91
2023-02-11T09:31:36.230Z,92.97
2023-02-11T09:34:04.990Z,92.45
2023-02-11T09:36:38.378Z,92.19
2023-02-11T09:39:07.344Z,92.47
2023-02-11T09:41:58.434Z,92.04
2023-02-11T09:44:45.856Z,91.87
2023-02-11T09:47:27.873Z,91.47
2023-02-11T09:50:01.289Z,91.69
2023-02-11T09:52:39.613Z,91.48
2023-02-11T09:55:18.710Z,91.34
2023-02-11T09:57:45.301Z,90.71
2023-02-11T10:00:22.088Z,90.61
2023-02-11T10:02:58.238Z,90.52
2023-02-11T10:05:30.570Z,90.17
2023-02-11T10:07:59.831Z,90.35
2023-02-11T10:10:50.391Z,89.66
2023-02-11T10:13:32.129Z,89.32
2023-02-11T10:15:58.483Z,89.26
2023-02-11T10:18:41.339Z,89.40
2023-02-11T10:21:16.871Z,88.78
2023-02-11T10:23:48.604Z,88.42
2023-02-11T10:26:17.483Z,88.07
2023-02-11T10:28:47.826Z,87.31
2023-02-11T10:31:20.388Z,87.06
2023-02-11T10:34:02.372Z,86.37
2023-02-11T10:36:32.993Z,86.08
2023-02-11T10:39:16.374Z,85.78
2023-02-11T10:41:46.006Z,85.60
2023-02-11T10:44:32.027Z,85.26
2023-02-11T10:47:04.305Z,85.30
2023-02-11T10:49:44.766Z,84.77
2023-02-11T10:52:18.174Z,84.94
2023-02-11T10:55:14.819Z,84.93
2023-02-11T10:58:02.216Z,84.79
2023-02-11T11:00:42.186Z,84.80
2023-02-11T11:03:23.899Z,84.78
2023-02-11T11:05:58.738Z,84.81
2023-02-11T11:08:57.833Z,84.56
2023-02-11T11:11:25.782Z,83.85
2023-02-11T11:13:52.102Z,83.44
2023-02-11T11:16:21.448Z,82.50
2023-02-11T11:18:50.882Z,82.26
2023-02-11T11:21:36.756Z,82.16
2023-02-11T11:24:04.202Z,82.27
2023-02-11T11:26:41.486Z,81.52
2023-02-11T11:29:14.485Z,81.26
2023-02-11T11:32:01.125Z,81.27
2023-02-11T11:34:32.129Z,81.21
2023-02-11T11:37:00.007Z,80.81
2023-02-11T11:39:28.517Z,81.01
2023-02-11T11:41:57.950Z,79.70
2023-02-11T11:44:26.285Z,79.83
2023-02-11T11:47:05.038Z,80.06
2023-02-11T11:49:39.352Z,80.21
2023-02-11T11:52:19.458Z,79.97
2023-02-11T11:54:51.911Z,79.52
2023-02-11T11:57:25.634Z,79.38
2023-02-11T11:59:52.219Z,79.58
2023-02-11T12:02:40.307Z,79.39
2023-02-11T12:05:45.494Z,79.74
2023-02-11T12:08:44.369Z,79.86
2023-02-11T12:11:31.262Z,79.95
2023-02-11T12:14:20.264Z,79.83
2023-02-11T12:17:05.126Z,79.56
2023-02-11T12:19:56.238Z,79.47
2023-02-11T12:22:46.489Z,79.04
2023-02-11T12:25:23.526Z,79.00
2023-02-11T12:28:14.294Z,78.46
2023-02-11T12:31:06.547Z,77.81
2023-02-11T12:34:18.260Z,76.94
2023-02-11T12:37:16.931Z,77.03
2023-02-11T12:39:50.770Z,75.96
2023-02-11T12:42:56.651Z,73.70
2023-02-11T12:45:38.757Z,73.91
2023-02-11T12:48:23.267Z,73.08
2023-02-11T12:50:56.685Z,73.62
2023-02-11T12:53:38.441Z,72.33
2023-02-11T12:56:24.568Z,71.78
2023-02-11T12:58:55.503Z,71.97
2023-02-11T13:01:34.125Z,71.86
2023-02-11T13:04:20.148Z,72.38
2023-02-11T13:06:51.830Z,71.96
2023-02-11T13:09:31.474Z,71.87
2023-02-11T13:12:23.303Z,72.00
2023-02-11T13:14:54.395Z,71.23
2023-02-11T13:17:33.983Z,71.86
2023-02-11T13:20:18.410Z,72.00
2023-02-11T13:22:57.189Z,71.56
2023-02-11T13:25:40.801Z,71.53
2023-02-11T13:28:36.334Z,71.20
2023-02-11T13:31:06.799Z,71.09
2023-02-11T13:33:35.999Z,71.56
2023-02-11T13:36:04.619Z,71.63
2023-02-11T13:38:32.130Z,71.14
2023-02-11T13:41:21.232Z,71.25
2023-02-11T13:43:59.304Z,71.66
2023-02-11T13:46:27.625Z,71.73
2023-02-11T13:48:54.610Z,71.80
2023-02-11T13:51:42.852Z,71.75
2023-02-11T13:54:20.976Z,72.16
2023-02-11T13:57:16.162Z,71.99
2023-02-11T13:59:42.480Z,71.84
2023-02-11T14:02:48.580Z,72.05
2023-02-11T14:05:36.952Z,71.86
2023-02-11T14:08:30.924Z,72.06
2023-02-11T14:10:57.279Z,72.60
2023-02-11T14:13:34.082Z,72.93
2023-02-11T14:16:28.298Z,73.01
2023-02-11T14:19:02.471Z,72.94
2023-02-11T14:21:32.353Z,73.34
2023-02-11T14:24:01.433Z,73.10
2023-02-11T14:26:52.270Z,73.35
2023-02-11T14:29:39.197Z,73.42
2023-02-11T14:32:29.134Z,73.53
2023-02-11T14:35:24.650Z,73.40
2023-02-11T14:37:51.084Z,73.55
2023-02-11T14:40:41.831Z,73.63
2023-02-11T14:43:16.926Z,73.86
2023-02-11T14:45:48.029Z,73.75
2023-02-11T14:48:17.646Z,73.95
2023-02-11T14:51:00.498Z,73.52
2023-02-11T14:53:30.261Z,73.87
2023-02-11T14:55:56.668Z,73.83
2023-02-11T14:58:32.247Z,73.44
2023-02-11T15:01:22.212Z,73.45
2023-02-11T15:03:49.675Z,73.84
2023-02-11T15:06:16.030Z,73.97
2023-02-11T15:08:47.014Z,74.32
2023-02-11T15:11:17.525Z,74.16
2023-02-11T15:13:47.499Z,73.99
2023-02-11T15:16:18.836Z,73.98
2023-02-11T15:18:51.851Z,73.73
2023-02-11T15:21:25.118Z,74.34
2023-02-11T15:24:00.674Z,74.30
2023-02-11T15:26:27.852Z,74.53
2023-02-11T15:28:56.004Z,74.42
2023-02-11T15:31:25.274Z,74.82
2023-02-11T15:33:52.910Z,74.56
2023-02-11T15:36:23.818Z,74.82
2023-02-11T15:39:29.338Z,74.74
2023-02-11T15:41:55.799Z,74.85
2023-02-11T15:44:30.631Z,74.85
2023-02-11T15:46:57.364Z,74.93
2023-02-11T15:49:25.358Z,75.43
2023-02-11T15:51:53.723Z,75.57
2023-02-11T15:54:26.679Z,76.25
2023-02-11T15:56:58.962Z,75.98
2023-02-11T15:59:35.491Z,76.28
2023-02-11T16:02:15.989Z,76.39
2023-02-11T16:04:51.107Z,76.70
2023-02-11T16:07:37.340Z,76.58
2023-02-11T16:10:04.044Z,77.07
2023-02-11T16:12:30.473Z,77.48
2023-02-11T16:14:59.722Z,77.22
2023-02-11T16:17:28.726Z,77.59
2023-02-11T16:19:55.878Z,77.42
2023-02-11T16:22:29.888Z,77.49
2023-02-11T16:24:59.349Z,77.90
2023-02-11T16:27:30.349Z,78.23
2023-02-11T16:29:58.404Z,78.13
2023-02-11T16:32:27.359Z,78.47
2023-02-11T16:34:57.882Z,78.58
2023-02-11T16:37:25.120Z,78.97
2023-02-11T16:39:55.726Z,79.00
2023-02-11T16:42:22.175Z,79.17
2023-02-11T16:44:48.562Z,79.27
2023-02-11T16:47:22.763Z,79.15
2023-02-11T16:49:49.656Z,79.25
2023-02-11T16:52:18.116Z,79.40
2023-02-11T16:54:44.512Z,79.45
2023-02-11T16:57:20.262Z,79.74
2023-02-11T16:59:47.394Z,79.67
2023-02-11T17:02:25.945Z,79.88
2023-02-11T17:04:54.482Z,80.09
2023-02-11T17:07:21.614Z,79.90
2023-02-11T17:09:48.064Z,80.03
2023-02-11T17:12:14.424Z,80.26
2023-02-11T17:14:40.794Z,80.63
2023-02-11T17:17:08.003Z,80.13
2023-02-11T17:19:34.515Z,80.62
2023-02-11T17:22:01.009Z,80.42
2023-02-11T17:24:27.480Z,80.59
2023-02-11T17:26:54.797Z,80.73
2023-02-11T17:29:24.004Z,80.92
2023-02-11T17:31:51.934Z,81.08
2023-02-11T17:34:19.485Z,81.33
2023-02-11T17:36:45.877Z,81.36
2023-02-11T17:39:12.595Z,81.72
2023-02-11T17:41:40.259Z,81.82
2023-02-11T17:44:07.993Z,81.94
2023-02-11T17:46:35.538Z,82.00
2023-02-11T17:49:02.842Z,82.00
2023-02-11T17:51:34.856Z,82.24
2023-02-11T17:54:04.517Z,82.15
2023-02-11T17:56:35.777Z,82.48
2023-02-11T17:59:02.900Z,82.57
2023-02-11T18:01:30.856Z,82.37
2023-02-11T18:03:57.366Z,82.57
2023-02-11T18:06:24.524Z,82.93
2023-02-11T18:08:50.938Z,82.62
2023-02-11T18:11:17.722Z,82.97
2023-02-11T18:13:45.319Z,83.16
2023-02-11T18:16:15.599Z,83.30
2023-02-11T18:18:43.272Z,83.33
2023-02-11T18:21:14.766Z,83.69
2023-02-11T18:23:41.314Z,83.53
2023-02-11T18:26:09.285Z,83.60
2023-02-11T18:28:36.218Z,83.60
2023-02-11T18:31:04.905Z,83.51
2023-02-11T18:33:31.723Z,83.49
2023-02-11T18:35:58.117Z,83.74
2023-02-11T18:38:24.720Z,83.93
2023-02-11T18:40:52.355Z,83.90
2023-02-11T18:43:20.309Z,84.01
2023-02-11T18:45:47.821Z,84.02
2023-02-11T18:48:14.335Z,84.05
2023-02-11T18:50:42.519Z,84.28
2023-02-11T18:53:08.977Z,84.39
2023-02-11T18:55:35.358Z,84.36
2023-02-11T18:58:01.686Z,84.37
2023-02-11T19:00:28.019Z,84.16
2023-02-11T19:02:54.370Z,84.54
2023-02-11T19:05:21.618Z,84.34
2023-02-11T19:07:47.962Z,84.44
2023-02-11T19:10:14.380Z,84.34
2023-02-11T19:12:41.889Z,84.40
2023-02-11T19:15:08.696Z,84.39
2023-02-11T19:17:35.155Z,84.65
2023-02-11T19:20:01.600Z,84.33
2023-02-11T19:22:28.022Z,84.59
2023-02-11T19:24:54.561Z,84.62
2023-02-11T19:27:20.915Z,84.46
2023-02-11T19:29:47.354Z,84.69
2023-02-11T19:32:14.024Z,84.19
2023-02-11T19:34:43.239Z,84.33
2023-02-11T19:37:12.479Z,84.46
2023-02-11T19:39:40.075Z,84.44
2023-02-11T19:42:06.607Z,84.63
2023-02-11T19:44:32.995Z,84.40
2023-02-11T19:46:59.909Z,84.48
2023-02-11T19:49:26.400Z,84.55
2023-02-11T19:51:55.203Z,84.69
2023-02-11T19:54:21.983Z,84.71
2023-02-11T19:56:48.743Z,84.57
2023-02-11T19:59:15.542Z,84.61
2023-02-11T20:01:42.306Z,84.66
2023-02-11T20:04:09.147Z,84.40
2023-02-11T20:06:35.781Z,84.31
2023-02-11T20:09:06.656Z,84.37
2023-02-11T20:11:34.307Z,84.29
2023-02-11T20:14:00.783Z,84.44
2023-02-11T20:16:46.361Z,84.28
2023-02-11T20:19:17.521Z,84.68
2023-02-11T20:21:46.779Z,84.54
2023-02-11T20:24:14.004Z,84.61
2023-02-11T20:26:42.385Z,84.54
2023-02-11T20:29:09.023Z,84.51
2023-02-11T20:31:35.684Z,84.31
2023-02-11T20:34:02.535Z,84.27
2023-02-11T20:36:32.116Z,84.40
2023-02-11T20:39:04.857Z,84.61
2023-02-11T20:41:36.215Z,84.65
2023-02-11T20:44:06.108Z,84.65
2023-02-11T20:46:34.064Z,84.52
2023-02-11T20:49:01.705Z,84.73
2023-02-11T20:51:32.834Z,84.88
2023-02-11T20:54:00.060Z,84.70
2023-02-11T20:56:30.065Z,84.79
2023-02-11T20:58:57.980Z,84.81
2023-02-11T21:01:30.607Z,84.49
2023-02-11T21:04:06.674Z,84.48
2023-02-11T21:06:40.005Z,84.67
2023-02-11T21:09:08.566Z,84.52
2023-02-11T21:11:35.545Z,84.47
2023-02-11T21:14:03.012Z,84.67
2023-02-11T21:16:29.510Z,84.82
2023-02-11T21:18:55.987Z,84.68
2023-02-11T21:21:23.132Z,84.88
2023-02-11T21:23:49.829Z,84.99
2023-02-11T21:26:17.176Z,84.94
2023-02-11T21:28:43.888Z,84.79
2023-02-11T21:31:18.875Z,84.97
2023-02-11T21:33:45.383Z,84.96
2023-02-11T21:36:11.729Z,85.01
2023-02-11T21:38:38.149Z,84.96
2023-02-11T21:41:05.428Z,85.06
2023-02-11T21:43:32.883Z,85.12
2023-02-11T21:45:59.823Z,85.47
2023-02-11T21:48:26.690Z,85.32
2023-02-11T21:50:54.042Z,85.43
2023-02-11T21:53:20.504Z,85.22
2023-02-11T21:55:47.121Z,85.33
2023-02-11T21:58:14.285Z,85.29
2023-02-11T22:00:40.770Z,85.33
2023-02-11T22:03:07.231Z,85.69
2023-02-11T22:05:33.651Z,85.68
2023-02-11T22:08:00.029Z,85.57
2023-02-11T22:10:26.434Z,85.79
2023-02-11T22:12:52.784Z,85.68
2023-02-11T22:15:19.711Z,85.70
2023-02-11T22:17:46.049Z,85.44
2023-02-11T22:20:12.595Z,85.48
2023-02-11T22:22:39.017Z,85.59
2023-02-11T22:25:05.889Z,85.54
2023-02-11T22:27:32.363Z,85.39
2023-02-11T22:29:58.793Z,85.55
2023-02-11T22:32:25.211Z,85.40
2023-02-11T22:34:53.318Z,85.37
2023-02-11T22:37:20.099Z,85.42
2023-02-11T22:39:46.494Z,85.51
2023-02-11T22:42:12.834Z,85.43
2023-02-11T22:44:39.204Z,85.45
2023-02-11T22:47:05.664Z,85.55
2023-02-11T22:49:33.235Z,85.74
2023-02-11T22:52:00.250Z,85.82
2023-02-11T22:54:27.573Z,85.96
2023-02-11T22:56:53.931Z,86.08
2023-02-11T22:59:20.965Z,86.12
2023-02-11T23:01:47.599Z,86.32
2023-02-11T23:04:15.825Z,86.37
2023-02-11T23:06:43.033Z,86.54
2023-02-11T23:09:12.191Z,86.34
2023-02-11T23:11:39.825Z,86.40
2023-02-11T23:14:08.442Z,86.36
2023-02-11T23:16:34.889Z,86.61
2023-02-11T23:19:04.771Z,86.66
2023-02-11T23:21:33.372Z,86.47
2023-02-11T23:24:05.897Z,86.47
2023-02-11T23:26:32.425Z,86.37
2023-02-11T23:28:59.609Z,86.40
2023-02-11T23:31:37.409Z,86.49
2023-02-11T23:34:04.480Z,86.56
2023-02-11T23:36:31.210Z,86.62
2023-02-11T23:38:57.643Z,86.54
2023-02-11T23:41:24.622Z,86.62
2023-02-11T23:43:52.765Z,86.73
2023-02-11T23:46:21.890Z,86.84
2023-02-11T23:48:49.167Z,86.80
2023-02-11T23:51:15.645Z,86.71
2023-02-11T23:53:42.278Z,86.67
2023-02-11T23:56:11.222Z,86.68
2023-02-11T23:58:37.596Z,86.78
